Time;durP1;ratioP1;P1;durP2;ratioP2;P2;SDS_P1;SDS_P2;PMS_P1;PMS_P2;Temp;Humidity;BMP_temperature;BMP_pressure;BME280_temperature;BME280_humidity;BME280_pressure;Samples;Min_cycle;Max_cycle;Signal;HPM_P1;HPM_P2
2022/07/28 00:00:14;;;;;;;1999.90;999.90;;;15.80;1.00;;;;;;5072490;28;20218;-59
2022/07/28 00:02:42;;;;;;;1999.90;999.90;;;15.80;1.00;;;;;;5072438;28;20195;-59
2022/07/28 00:05:10;;;;;;;1999.90;999.90;;;15.80;1.00;;;;;;5072467;28;20202;-59
2022/07/28 00:07:37;;;;;;;1999.90;999.90;;;15.70;1.00;;;;;;5072101;28;20226;-59
2022/07/28 00:10:05;;;;;;;1999.90;999.90;;;15.70;1.00;;;;;;5072304;28;20207;-59
2022/07/28 00:12:33;;;;;;;1999.90;999.90;;;15.60;74.60;;;;;;5072381;28;20195;-59
2022/07/28 00:15:00;;;;;;;1999.90;999.90;;;15.60;99.90;;;;;;5072297;28;20199;-59
2022/07/28 00:17:27;;;;;;;1999.90;999.90;;;15.50;99.90;;;;;;5072294;28;20205;-60
2022/07/28 00:19:56;;;;;;;1999.90;999.90;;;15.50;1.00;;;;;;5072235;28;20191;-59
2022/07/28 00:22:23;;;;;;;1999.90;999.90;;;15.50;1.00;;;;;;5071847;28;20206;-59
2022/07/28 00:24:50;;;;;;;1999.90;999.90;;;15.40;99.90;;;;;;5072317;28;20187;-59
2022/07/28 00:27:17;;;;;;;1999.90;999.90;;;15.40;99.90;;;;;;5072793;28;20199;-64
2022/07/28 00:29:44;;;;;;;1999.90;999.90;;;15.30;1.00;;;;;;5075736;28;20207;-59
2022/07/28 00:32:11;;;;;;;1999.90;999.90;;;15.30;1.00;;;;;;5084034;28;20193;-58
2022/07/28 00:34:38;;;;;;;1999.90;999.90;;;15.30;1.00;;;;;;5081049;28;20199;-59
2022/07/28 00:37:07;;;;;;;1999.90;999.90;;;15.30;1.00;;;;;;5075606;28;20685;-59
2022/07/28 00:39:34;;;;;;;1999.90;999.90;;;15.30;12.80;;;;;;5075438;28;20239;-59
2022/07/28 00:42:01;;;;;;;1999.90;999.90;;;15.30;35.10;;;;;;5075935;28;20197;-59
2022/07/28 00:44:28;;;;;;;1999.90;999.90;;;15.30;99.90;;;;;;5076561;28;20198;-59
2022/07/28 00:46:55;;;;;;;1999.90;999.90;;;15.30;99.90;;;;;;5075719;28;20211;-59
2022/07/28 00:49:22;;;;;;;1999.90;999.90;;;15.30;99.90;;;;;;5075445;28;20683;-59
2022/07/28 00:51:49;;;;;;;1999.90;999.90;;;15.30;99.90;;;;;;5075574;28;20205;-59
2022/07/28 00:54:18;;;;;;;1999.90;999.90;;;15.30;99.90;;;;;;5075339;28;20197;-59
2022/07/28 00:56:45;;;;;;;1999.90;999.90;;;15.30;99.90;;;;;;5075612;28;20197;-60
2022/07/28 00:59:12;;;;;;;1999.90;999.90;;;15.30;99.90;;;;;;5075346;28;20668;-59
2022/07/28 01:01:39;;;;;;;1999.90;999.90;;;15.30;99.90;;;;;;5077477;28;20194;-60
2022/07/28 01:04:06;;;;;;;1999.90;999.90;;;15.20;99.90;;;;;;5085990;28;20182;-59
2022/07/28 01:07:11;;;;;;;1999.90;999.90;;;15.20;1.00;;;;;;5082528;28;20195;-59
2022/07/28 01:09:49;;;;;;;1999.90;999.90;;;15.10;1.00;;;;;;5004604;28;20719;-59
2022/07/28 01:12:26;;;;;;;1999.90;999.90;;;15.10;1.00;;;;;;5001672;28;20200;-59
2022/07/28 01:15:03;;;;;;;1999.90;999.90;;;15.10;43.30;;;;;;4993566;28;20209;-59
2022/07/28 01:17:44;;;;;;;1999.90;999.90;;;15.00;68.50;;;;;;5000930;28;20185;-59
2022/07/28 01:20:16;;;;;;;1999.90;999.90;;;15.00;99.90;;;;;;5009528;28;20211;-59
2022/07/28 01:23:01;;;;;;;1999.90;999.90;;;15.00;99.90;;;;;;5006631;28;20211;-59
2022/07/28 01:25:46;;;;;;;1999.90;999.90;;;15.00;1.00;;;;;;5009911;28;20185;-60
2022/07/28 01:28:24;;;;;;;1999.90;999.90;;;15.00;1.00;;;;;;5007411;28;20212;-59
2022/07/28 01:30:56;;;;;;;1999.90;999.90;;;15.00;1.00;;;;;;5012527;28;20180;-59
2022/07/28 01:33:31;;;;;;;1999.90;999.90;;;15.00;99.90;;;;;;5012760;28;20614;-59
2022/07/28 01:36:03;;;;;;;1999.90;999.90;;;15.00;99.90;;;;;;5012855;28;20219;-59
2022/07/28 01:38:34;;;;;;;1999.90;999.90;;;15.00;1.00;;;;;;5021330;28;20228;-59
2022/07/28 01:41:03;;;;;;;1999.90;999.90;;;14.90;1.00;;;;;;5061809;28;20222;-60
2022/07/28 01:43:36;;;;;;;1999.90;999.90;;;14.90;99.90;;;;;;5074777;28;20202;-59
2022/07/28 01:46:06;;;;;;;1999.90;999.90;;;14.90;1.00;;;;;;5074843;28;20179;-59
2022/07/28 01:48:37;;;;;;;1999.90;999.90;;;14.90;1.00;;;;;;5074603;28;20215;-59
2022/07/28 01:51:06;;;;;;;1999.90;999.90;;;14.90;1.00;;;;;;5073580;28;20183;-59
2022/07/28 01:53:36;;;;;;;1999.90;999.90;;;14.90;1.00;;;;;;5074321;28;20199;-60
2022/07/28 01:56:05;;;;;;;1999.90;999.90;;;14.90;99.90;;;;;;5074125;28;20201;-60
2022/07/28 01:58:34;;;;;;;1999.90;999.90;;;14.80;18.90;;;;;;5074184;28;20201;-59
2022/07/28 02:01:04;;;;;;;1999.90;999.90;;;14.80;99.90;;;;;;5074499;28;20191;-60
2022/07/28 02:03:34;;;;;;;1999.90;999.90;;;14.80;99.90;;;;;;5074454;28;20183;-59
2022/07/28 02:06:02;;;;;;;1999.90;999.90;;;14.70;99.90;;;;;;5074319;28;20552;-59
2022/07/28 02:08:31;;;;;;;1999.90;999.90;;;14.70;1.00;;;;;;5073653;28;20218;-59
2022/07/28 02:13:46;;;;;;;1999.90;999.90;;;14.70;1.00;;;;;;5074322;28;20175;-59
2022/07/28 02:16:17;;;;;;;1999.90;999.90;;;14.60;99.90;;;;;;5073915;28;20199;-60
2022/07/28 02:18:46;;;;;;;1999.90;999.90;;;14.60;99.90;;;;;;5073942;28;20641;-59
2022/07/28 02:21:14;;;;;;;1999.90;999.90;;;14.50;99.90;;;;;;5073594;28;20251;-59
2022/07/28 02:23:45;;;;;;;1999.90;999.90;;;14.50;1.00;;;;;;5073692;28;20698;-59
2022/07/28 02:26:14;;;;;;;1999.90;999.90;;;14.50;1.00;;;;;;5073691;28;20648;-59
2022/07/28 02:28:45;;;;;;;1999.90;999.90;;;14.40;1.00;;;;;;5073153;28;20214;-59
2022/07/28 02:31:19;;;;;;;1999.90;999.90;;;14.40;1.00;;;;;;5073554;28;20194;-59
2022/07/28 02:33:48;;;;;;;1999.90;999.90;;;14.40;1.00;;;;;;5073617;28;20176;-59
2022/07/28 02:36:20;;;;;;;1999.90;999.90;;;14.30;1.00;;;;;;5073722;28;20202;-59
2022/07/28 02:38:50;;;;;;;1999.90;999.90;;;14.30;20.70;;;;;;5073311;28;20588;-60
2022/07/28 02:41:22;;;;;;;1999.90;999.90;;;14.20;92.90;;;;;;5073690;28;20187;-59
2022/07/28 02:43:52;;;;;;;1999.90;999.90;;;14.20;99.90;;;;;;5073595;28;20179;-59
2022/07/28 02:46:25;;;;;;;1999.90;999.90;;;14.20;99.90;;;;;;5073314;28;20528;-59
2022/07/28 02:49:00;;;;;;;1999.90;999.90;;;14.10;99.90;;;;;;5073527;28;20199;-59
2022/07/28 02:51:29;;;;;;;1999.90;999.90;;;14.10;99.90;;;;;;5072993;28;20182;-59
2022/07/28 02:53:58;;;;;;;1999.90;999.90;;;14.00;99.90;;;;;;5073428;28;20191;-59
2022/07/28 02:56:26;;;;;;;1999.90;999.90;;;14.00;99.90;;;;;;5073028;28;20559;-59
2022/07/28 02:58:54;;;;;;;1999.90;999.90;;;13.90;99.90;;;;;;5073233;28;20199;-59
2022/07/28 03:01:23;;;;;;;1999.90;999.90;;;13.90;99.90;;;;;;5072875;28;20540;-60
2022/07/28 03:03:51;;;;;;;1999.90;999.90;;;13.90;99.90;;;;;;5072864;28;20199;-59
2022/07/28 03:06:21;;;;;;;1999.90;999.90;;;13.80;99.90;;;;;;5073118;28;20202;-59
2022/07/28 03:08:49;;;;;;;1999.90;999.90;;;13.70;99.90;;;;;;5072913;28;20215;-59
2022/07/28 03:11:16;;;;;;;1999.90;999.90;;;13.60;99.90;;;;;;5073045;28;20217;-59
2022/07/28 03:13:43;;;;;;;1999.90;999.90;;;13.60;99.90;;;;;;5072840;28;20583;-59
2022/07/28 03:16:10;;;;;;;1999.90;999.90;;;13.60;99.90;;;;;;5072712;28;20206;-59
2022/07/28 03:18:39;;;;;;;1999.90;999.90;;;13.60;99.90;;;;;;5072991;28;20187;-59
2022/07/28 03:21:06;;;;;;;1999.90;999.90;;;13.60;99.90;;;;;;5072808;28;20199;-60
2022/07/28 03:23:38;;;;;;;1999.90;999.90;;;13.60;99.90;;;;;;5072962;28;20199;-59
2022/07/28 03:26:10;;;;;;;1999.90;999.90;;;13.50;99.90;;;;;;5072634;28;20186;-59
2022/07/28 03:28:38;;;;;;;1999.90;999.90;;;13.50;99.90;;;;;;5072543;28;20207;-59
2022/07/28 03:31:10;;;;;;;1999.90;999.90;;;13.40;99.90;;;;;;5072878;28;20203;-59
2022/07/28 03:33:39;;;;;;;1999.90;999.90;;;13.40;99.90;;;;;;5072677;28;20183;-59
2022/07/28 03:36:10;;;;;;;1999.90;999.90;;;13.40;99.90;;;;;;5072217;28;20217;-59
2022/07/28 03:38:43;;;;;;;1999.90;999.90;;;13.30;99.90;;;;;;5072219;28;20232;-59
2022/07/28 03:41:11;;;;;;;1999.90;999.90;;;13.30;99.90;;;;;;5072356;28;20213;-59
2022/07/28 03:43:39;;;;;;;1999.90;999.90;;;13.30;99.90;;;;;;5072619;28;20199;-59
2022/07/28 03:46:07;;;;;;;1999.90;999.90;;;13.20;99.90;;;;;;5072423;28;20209;-59
2022/07/28 03:48:34;;;;;;;1999.90;999.90;;;13.20;99.90;;;;;;5072485;28;20219;-59
2022/07/28 03:51:03;;;;;;;1999.90;999.90;;;13.20;99.90;;;;;;5072457;28;20209;-59
2022/07/28 03:53:30;;;;;;;1999.90;999.90;;;13.10;99.90;;;;;;5072545;28;20556;-59
2022/07/28 03:55:58;;;;;;;1999.90;999.90;;;13.20;99.90;;;;;;5072262;28;20199;-60
2022/07/28 03:58:27;;;;;;;1999.90;999.90;;;13.20;99.90;;;;;;5072587;28;20191;-60
2022/07/28 04:00:54;;;;;;;1999.90;999.90;;;13.10;99.90;;;;;;5072441;28;20195;-60
2022/07/28 04:03:21;;;;;;;1999.90;999.90;;;13.20;99.90;;;;;;5071756;28;20740;-60
2022/07/28 04:05:48;;;;;;;1999.90;999.90;;;13.10;99.90;;;;;;5072483;28;20195;-59
2022/07/28 04:08:17;;;;;;;1999.90;999.90;;;13.10;99.90;;;;;;5071995;28;20223;-60
2022/07/28 04:10:44;;;;;;;1999.90;999.90;;;13.20;99.90;;;;;;5072157;28;20206;-60
2022/07/28 04:13:11;;;;;;;1999.90;999.90;;;13.20;99.90;;;;;;5072403;28;20195;-59
2022/07/28 04:15:38;;;;;;;1999.90;999.90;;;13.20;99.90;;;;;;5072020;28;20199;-59
2022/07/28 04:18:06;;;;;;;1999.90;999.90;;;13.20;99.90;;;;;;5072176;28;20194;-60
2022/07/28 04:20:33;;;;;;;1999.90;999.90;;;13.20;99.90;;;;;;5072218;28;20194;-59
2022/07/28 04:23:00;;;;;;;1999.90;999.90;;;13.20;99.90;;;;;;5072348;28;20198;-60
2022/07/28 04:25:28;;;;;;;1999.90;999.90;;;13.20;99.90;;;;;;5072023;28;20195;-60
2022/07/28 04:27:56;;;;;;;1999.90;999.90;;;13.20;99.90;;;;;;5072156;28;20205;-60
2022/07/28 04:30:26;;;;;;;1999.90;999.90;;;13.30;99.90;;;;;;5071812;28;20199;-61
2022/07/28 04:32:55;;;;;;;1999.90;999.90;;;13.30;99.90;;;;;;5072166;28;20208;-59
2022/07/28 04:35:24;;;;;;;1999.90;999.90;;;13.30;99.90;;;;;;5071918;28;20218;-59
2022/07/28 04:37:54;;;;;;;1999.90;999.90;;;13.30;99.90;;;;;;5071568;28;20724;-59
2022/07/28 04:40:21;;;;;;;1999.90;999.90;;;13.40;99.90;;;;;;5072249;28;20197;-59
2022/07/28 04:42:49;;;;;;;1999.90;999.90;;;13.50;99.90;;;;;;5071847;28;20194;-60
2022/07/28 04:45:17;;;;;;;1999.90;999.90;;;13.50;99.90;;;;;;5071733;28;20202;-59
2022/07/28 04:47:44;;;;;;;1999.90;999.90;;;13.50;99.90;;;;;;5071716;28;20195;-60
2022/07/28 04:50:14;;;;;;;1999.90;999.90;;;13.60;99.90;;;;;;5071652;28;20226;-63
2022/07/28 04:52:42;;;;;;;1999.90;999.90;;;13.70;99.90;;;;;;5071907;28;20199;-60
2022/07/28 04:55:09;;;;;;;1999.90;999.90;;;13.70;99.90;;;;;;5071647;28;20195;-60
2022/07/28 04:57:36;;;;;;;1999.90;999.90;;;13.70;99.90;;;;;;5071677;28;20229;-60
2022/07/28 05:00:11;;;;;;;1999.90;999.90;;;13.80;99.90;;;;;;5072007;28;20191;-59
2022/07/28 05:02:38;;;;;;;1999.90;999.90;;;13.80;99.90;;;;;;5072035;28;20183;-60
2022/07/28 05:05:06;;;;;;;1999.90;999.90;;;13.80;99.90;;;;;;5071958;28;20664;-59
2022/07/28 05:07:33;;;;;;;1999.90;999.90;;;13.90;99.90;;;;;;5071884;28;20272;-59
2022/07/28 05:10:00;;;;;;;1999.90;999.90;;;13.90;99.90;;;;;;5071758;28;20215;-59
2022/07/28 05:12:27;;;;;;;1999.90;999.90;;;14.00;99.90;;;;;;5071913;28;20191;-60
2022/07/28 05:14:54;;;;;;;1999.90;999.90;;;14.00;99.90;;;;;;5073226;28;20205;-60
2022/07/28 05:17:23;;;;;;;1999.90;999.90;;;14.00;99.90;;;;;;5075001;28;20211;-59
2022/07/28 05:19:50;;;;;;;1999.90;999.90;;;14.00;99.90;;;;;;5075015;28;20195;-59
2022/07/28 05:22:17;;;;;;;1999.90;999.90;;;14.10;99.90;;;;;;5074917;28;20694;-60
2022/07/28 05:24:44;;;;;;;1999.90;999.90;;;14.20;99.90;;;;;;5075002;28;20202;-60
2022/07/28 05:27:12;;;;;;;1999.90;999.90;;;14.30;99.90;;;;;;5075247;28;20194;-59
2022/07/28 05:29:40;;;;;;;1999.90;999.90;;;14.50;99.90;;;;;;5074702;28;20209;-60
2022/07/28 05:32:07;;;;;;;1999.90;999.90;;;14.70;99.90;;;;;;5075082;28;20220;-60
2022/07/28 05:34:36;;;;;;;1999.90;999.90;;;14.80;99.90;;;;;;5074616;28;20236;-59
2022/07/28 05:37:03;;;;;;;1999.90;999.90;;;15.00;99.90;;;;;;5074482;28;20688;-60
2022/07/28 05:39:31;;;;;;;1999.90;999.90;;;15.20;99.90;;;;;;5074602;28;20223;-60
2022/07/28 05:41:59;;;;;;;1999.90;999.90;;;15.20;99.90;;;;;;5074987;28;20201;-59
2022/07/28 05:44:26;;;;;;;1999.90;999.90;;;15.30;99.90;;;;;;5074942;28;20210;-59
2022/07/28 05:46:53;;;;;;;1999.90;999.90;;;15.20;99.90;;;;;;5074780;28;20198;-59
2022/07/28 05:49:20;;;;;;;1999.90;999.90;;;15.30;99.90;;;;;;5087309;28;20218;-60
2022/07/28 05:51:49;;;;;;;1999.90;999.90;;;15.90;99.90;;;;;;5094831;28;20239;-60
2022/07/28 05:54:16;;;;;;;1999.90;999.90;;;16.20;99.90;;;;;;5094809;28;20195;-60
2022/07/28 05:56:43;;;;;;;1999.90;999.90;;;16.10;99.90;;;;;;5094527;28;20213;-60
2022/07/28 05:59:10;;;;;;;1999.90;999.90;;;16.00;99.90;;;;;;5083332;28;20184;-60
2022/07/28 06:01:38;;;;;;;1999.90;999.90;;;15.90;99.90;;;;;;5080670;28;20191;-60
2022/07/28 06:04:05;;;;;;;1999.90;999.90;;;15.90;99.90;;;;;;5085109;28;20191;-61
2022/07/28 06:06:32;;;;;;;1999.90;999.90;;;15.90;99.90;;;;;;5083778;28;20195;-60
2022/07/28 06:09:00;;;;;;;1999.90;999.90;;;16.10;99.90;;;;;;5083373;28;20215;-60
2022/07/28 06:11:27;;;;;;;1999.90;999.90;;;16.00;99.90;;;;;;5085028;28;20187;-60
2022/07/28 06:13:55;;;;;;;1999.90;999.90;;;16.10;99.90;;;;;;5083705;28;20260;-61
2022/07/28 06:16:22;;;;;;;1999.90;999.90;;;16.20;32.80;;;;;;5091454;28;20248;-60
2022/07/28 06:18:50;;;;;;;1999.90;999.90;;;16.40;1.00;;;;;;5094252;28;20296;-62
2022/07/28 06:21:17;;;;;;;1999.90;999.90;;;16.70;1.00;;;;;;5094253;28;20196;-61
2022/07/28 06:23:44;;;;;;;1999.90;999.90;;;16.90;1.00;;;;;;5093940;28;20244;-59
2022/07/28 06:26:12;;;;;;;1999.90;999.90;;;17.00;46.90;;;;;;5093498;28;20670;-59
2022/07/28 06:28:39;;;;;;;1999.90;999.90;;;17.10;1.00;;;;;;5093864;28;20706;-59
2022/07/28 06:31:06;;;;;;;1999.90;999.90;;;17.10;99.90;;;;;;5088039;28;20296;-59
2022/07/28 06:33:33;;;;;;;1999.90;999.90;;;17.20;99.90;;;;;;5093799;28;20217;-58
2022/07/28 06:36:00;;;;;;;1999.90;999.90;;;17.20;1.00;;;;;;5094023;28;20203;-61
2022/07/28 06:38:27;;;;;;;1999.90;999.90;;;17.10;1.00;;;;;;5093559;28;20236;-59
2022/07/28 06:40:55;;;;;;;1999.90;999.90;;;17.30;99.90;;;;;;5094006;28;20192;-61
2022/07/28 06:43:23;;;;;;;1999.90;999.90;;;17.60;1.00;;;;;;5093268;28;20207;-59
2022/07/28 06:45:50;;;;;;;1999.90;999.90;;;17.50;1.00;;;;;;5091867;28;20209;-58
2022/07/28 06:48:18;;;;;;;1999.90;999.90;;;17.80;1.00;;;;;;5081609;28;20189;-61
2022/07/28 06:50:46;;;;;;;1999.90;999.90;;;17.90;97.40;;;;;;5073448;28;20215;-62
2022/07/28 06:53:13;;;;;;;1999.90;999.90;;;18.10;1.00;;;;;;5078778;28;20226;-59
2022/07/28 06:55:40;;;;;;;1999.90;999.90;;;18.00;1.00;;;;;;5091341;28;20675;-59
2022/07/28 06:58:07;;;;;;;1999.90;999.90;;;18.30;1.00;;;;;;5081601;28;20191;-59
2022/07/28 07:00:35;;;;;;;1999.90;999.90;;;18.70;1.00;;;;;;5073228;28;20194;-59
2022/07/28 07:03:02;;;;;;;1999.90;999.90;;;18.90;99.90;;;;;;5072901;28;20209;-59
2022/07/28 07:05:30;;;;;;;1999.90;999.90;;;19.00;1.00;;;;;;5073121;28;20198;-59
2022/07/28 07:07:57;;;;;;;1999.90;999.90;;;20.00;99.90;;;;;;5072636;28;20212;-59
2022/07/28 07:10:24;;;;;;;1999.90;999.90;;;20.60;99.90;;;;;;5075467;28;20233;-60
2022/07/28 07:12:52;;;;;;;1999.90;999.90;;;21.10;1.00;;;;;;5081978;28;20193;-60
2022/07/28 07:15:19;;;;;;;1999.90;999.90;;;21.40;1.00;;;;;;5086895;28;20566;-59
2022/07/28 07:17:47;;;;;;;1999.90;999.90;;;21.90;99.90;;;;;;5076680;28;20187;-60
2022/07/28 07:20:15;;;;;;;1999.90;999.90;;;21.80;99.90;;;;;;5088867;28;20659;-60
2022/07/28 07:22:43;;;;;;;1999.90;999.90;;;21.40;9.90;;;;;;5092734;28;20810;-59
2022/07/28 07:25:11;;;;;;;1999.90;999.90;;;21.00;1.00;;;;;;5092495;28;20198;-61
2022/07/28 07:27:38;;;;;;;1999.90;999.90;;;20.50;1.00;;;;;;5091738;28;20242;-60
2022/07/28 07:30:07;;;;;;;1999.90;999.90;;;20.70;1.00;;;;;;5091931;28;20214;-58
2022/07/28 07:32:35;;;;;;;1999.90;999.90;;;21.10;1.00;;;;;;5092185;28;20198;-58
2022/07/28 07:35:04;;;;;;;1999.90;999.90;;;21.20;1.00;;;;;;5091372;28;20197;-58
2022/07/28 07:37:32;;;;;;;1999.90;999.90;;;21.70;99.90;;;;;;5091015;28;20250;-58
2022/07/28 07:39:59;;;;;;;1999.90;999.90;;;22.00;99.90;;;;;;5092091;28;20177;-58
2022/07/28 07:42:26;;;;;;;1999.90;999.90;;;22.60;99.90;;;;;;5091788;28;20197;-58
2022/07/28 07:44:54;;;;;;;1999.90;999.90;;;22.60;99.90;;;;;;5092755;28;20202;-58
2022/07/28 07:47:21;;;;;;;1999.90;999.90;;;23.00;99.90;;;;;;5092487;28;20194;-57
2022/07/28 07:49:48;;;;;;;1999.90;999.90;;;23.70;99.90;;;;;;5092659;28;20217;-58
2022/07/28 07:52:16;;;;;;;1999.90;999.90;;;24.10;45.20;;;;;;5092246;28;20198;-58
2022/07/28 07:54:44;;;;;;;1999.90;999.90;;;23.90;1.00;;;;;;5075333;28;20209;-58
2022/07/28 07:57:11;;;;;;;1999.90;999.90;;;23.80;1.00;;;;;;5072502;28;20199;-58
2022/07/28 07:59:38;;;;;;;1999.90;999.90;;;23.60;1.00;;;;;;5072069;28;20191;-57
2022/07/28 08:02:06;;;;;;;1999.90;999.90;;;23.80;1.00;;;;;;5071192;28;20563;-57
2022/07/28 08:04:33;;;;;;;1999.90;999.90;;;24.00;1.00;;;;;;5072358;28;20206;-57
2022/07/28 08:07:02;;;;;;;1999.90;999.90;;;23.60;1.00;;;;;;5072852;28;20205;-59
2022/07/28 08:09:30;;;;;;;1999.90;999.90;;;23.60;1.00;;;;;;5081621;28;20208;-59
2022/07/28 08:11:58;;;;;;;1999.90;999.90;;;23.80;1.00;;;;;;5083976;28;20209;-58
2022/07/28 08:14:25;;;;;;;1999.90;999.90;;;24.00;1.00;;;;;;5079302;28;20510;-59
2022/07/28 08:16:53;;;;;;;1999.90;999.90;;;23.90;1.00;;;;;;5081831;28;20189;-58
2022/07/28 08:19:20;;;;;;;1999.90;999.90;;;24.10;1.00;;;;;;5082476;28;20396;-58
2022/07/28 08:21:47;;;;;;;1999.90;999.90;;;24.60;99.90;;;;;;5080645;28;20187;-58
2022/07/28 08:24:14;;;;;;;1999.90;999.90;;;24.40;99.90;;;;;;5080909;28;20191;-59
2022/07/28 08:26:43;;;;;;;1999.90;999.90;;;24.30;99.90;;;;;;5082879;28;20196;-59
2022/07/28 08:29:10;;;;;;;1999.90;999.90;;;24.40;99.90;;;;;;5079763;28;20548;-59
2022/07/28 08:31:37;;;;;;;1999.90;999.90;;;24.60;99.90;;;;;;5081882;28;20197;-59
2022/07/28 08:34:04;;;;;;;1999.90;999.90;;;24.60;99.90;;;;;;5080276;28;20186;-59
2022/07/28 08:36:31;;;;;;;1999.90;999.90;;;24.80;99.90;;;;;;5071540;28;20191;-59
2022/07/28 08:38:58;;;;;;;1999.90;999.90;;;24.70;99.90;;;;;;5078684;28;20223;-59
2022/07/28 08:41:32;;;;;;;1999.90;999.90;;;25.10;99.90;;;;;;5080358;28;20194;-59
2022/07/28 08:44:03;;;;;;;1999.90;999.90;;;25.50;99.90;;;;;;5081430;28;20181;-59
2022/07/28 08:46:35;;;;;;;1999.90;999.90;;;25.70;99.90;;;;;;5080467;28;20604;-59
2022/07/28 08:49:05;;;;;;;1999.90;999.90;;;25.40;99.90;;;;;;5082917;28;20177;-59
2022/07/28 08:51:33;;;;;;;1999.90;999.90;;;25.50;99.90;;;;;;5074806;28;20199;-58
2022/07/28 08:54:02;;;;;;;1999.90;999.90;;;25.90;99.90;;;;;;5080864;28;20342;-59
2022/07/28 08:56:30;;;;;;;1999.90;999.90;;;25.90;99.90;;;;;;5075235;28;20196;-59
2022/07/28 08:58:58;;;;;;;1999.90;999.90;;;25.80;99.90;;;;;;5075551;28;20201;-59
2022/07/28 09:01:27;;;;;;;1999.90;999.90;;;25.80;99.90;;;;;;5083175;28;20188;-59
2022/07/28 09:03:54;;;;;;;1999.90;999.90;;;26.10;99.90;;;;;;5075578;28;20195;-58
2022/07/28 09:06:22;;;;;;;1999.90;999.90;;;25.80;99.90;;;;;;5075321;28;20205;-58
2022/07/28 09:08:49;;;;;;;1999.90;999.90;;;26.00;99.90;;;;;;5075440;28;20217;-59
2022/07/28 09:11:16;;;;;;;1999.90;999.90;;;26.50;99.90;;;;;;5075350;28;20203;-59
2022/07/28 09:13:43;;;;;;;1999.90;999.90;;;26.40;99.90;;;;;;5075091;28;20530;-59
2022/07/28 09:16:12;;;;;;;1999.90;999.90;;;25.90;91.60;;;;;;5074969;28;20194;-59
2022/07/28 09:18:41;;;;;;;1999.90;999.90;;;25.90;92.10;;;;;;5075244;28;20567;-59
2022/07/28 09:21:08;;;;;;;1999.90;999.90;;;26.00;90.40;;;;;;5075151;28;20202;-59
2022/07/28 09:23:45;;;;;;;1999.90;999.90;;;26.00;74.20;;;;;;5075181;28;20217;-59
2022/07/28 09:26:12;;;;;;;1999.90;999.90;;;26.10;65.90;;;;;;5074789;28;20225;-59
2022/07/28 09:28:51;;;;;;;1999.90;999.90;;;26.20;52.80;;;;;;5074936;28;20197;-59
2022/07/28 09:31:18;;;;;;;1999.90;999.90;;;26.40;48.30;;;;;;5074943;28;20206;-59
2022/07/28 09:33:59;;;;;;;1999.90;999.90;;;26.10;41.30;;;;;;5074804;28;20559;-59
2022/07/28 09:36:27;;;;;;;1999.90;999.90;;;26.30;22.90;;;;;;5074584;28;20189;-59
2022/07/28 09:38:55;;;;;;;1999.90;999.90;;;26.30;20.00;;;;;;5074528;28;20234;-59
2022/07/28 09:41:22;;;;;;;1999.90;999.90;;;26.20;15.50;;;;;;5074863;28;20228;-59
2022/07/28 09:43:51;;;;;;;1999.90;999.90;;;25.90;27.50;;;;;;5074463;28;20202;-59
2022/07/28 09:46:20;;;;;;;1999.90;999.90;;;25.90;1.20;;;;;;5079955;28;20201;-58
2022/07/28 09:48:55;;;;;;;1999.90;999.90;;;26.00;9.70;;;;;;5082960;28;20183;-59
2022/07/28 09:51:26;;;;;;;1999.90;999.90;;;26.10;1.00;;;;;;5081608;28;20609;-60
2022/07/28 09:54:06;;;;;;;1999.90;999.90;;;26.20;1.00;;;;;;5074715;28;20187;-60
2022/07/28 09:56:34;;;;;;;1999.90;999.90;;;26.40;1.00;;;;;;5079175;28;20674;-60
2022/07/28 09:59:02;;;;;;;1999.90;999.90;;;26.00;1.00;;;;;;5074057;28;20198;-59
2022/07/28 10:01:29;;;;;;;1999.90;999.90;;;26.20;1.00;;;;;;5073523;28;20199;-58
2022/07/28 10:03:58;;;;;;;1999.90;999.90;;;26.70;1.00;;;;;;5074314;28;20198;-58
2022/07/28 10:06:28;;;;;;;1999.90;999.90;;;26.00;1.00;;;;;;5074170;28;20195;-59
2022/07/28 10:08:56;;;;;;;1999.90;999.90;;;26.30;1.00;;;;;;5083345;28;20193;-60
2022/07/28 10:11:26;;;;;;;1999.90;999.90;;;26.60;1.00;;;;;;5088135;28;20206;-59
2022/07/28 10:13:58;;;;;;;1999.90;999.90;;;26.40;1.00;;;;;;5094022;28;20205;-59
2022/07/28 10:16:28;;;;;;;1999.90;999.90;;;26.50;1.00;;;;;;5094352;28;20183;-59
2022/07/28 10:18:58;;;;;;;1999.90;999.90;;;26.90;1.00;;;;;;5094000;28;20663;-59
2022/07/28 10:21:28;;;;;;;1999.90;999.90;;;26.70;1.00;;;;;;5093829;28;20183;-60
2022/07/28 10:23:56;;;;;;;1999.90;999.90;;;26.70;1.00;;;;;;5081277;28;20194;-59
2022/07/28 10:26:28;;;;;;;1999.90;999.90;;;26.70;1.00;;;;;;5073608;28;20195;-60
2022/07/28 10:28:56;;;;;;;1999.90;999.90;;;26.90;1.00;;;;;;5072897;28;20191;-59
2022/07/28 10:31:41;;;;;;;1999.90;999.90;;;27.10;1.00;;;;;;5073467;28;20772;-60
2022/07/28 10:34:13;;;;;;;1999.90;999.90;;;26.90;1.00;;;;;;5073546;28;20183;-59
2022/07/28 10:36:43;;;;;;;1999.90;999.90;;;26.90;1.00;;;;;;5073704;28;20175;-60
2022/07/28 10:39:15;;;;;;;1999.90;999.90;;;27.10;1.00;;;;;;5073397;28;20238;-60
2022/07/28 10:41:43;;;;;;;1999.90;999.90;;;27.50;1.00;;;;;;5073718;28;20182;-60
2022/07/28 10:44:13;;;;;;;1999.90;999.90;;;27.40;1.00;;;;;;5073548;28;20203;-59
2022/07/28 10:46:44;;;;;;;1999.90;999.90;;;27.70;1.00;;;;;;5073284;28;20186;-59
2022/07/28 10:49:14;;;;;;;1999.90;999.90;;;28.20;1.00;;;;;;5073614;28;20278;-60
2022/07/28 10:51:46;;;;;;;1999.90;999.90;;;27.90;1.00;;;;;;5073314;28;20217;-60
2022/07/28 10:54:18;;;;;;;1999.90;999.90;;;27.80;1.00;;;;;;5073415;28;20184;-59
2022/07/28 10:56:50;;;;;;;1999.90;999.90;;;28.00;1.00;;;;;;5073141;28;20543;-60
2022/07/28 10:59:56;;;;;;;1999.90;999.90;;;28.20;1.00;;;;;;5073330;28;20183;-59
2022/07/28 11:02:51;;;;;;;1999.90;999.90;;;28.30;1.00;;;;;;5049712;28;20209;-60
2022/07/28 11:05:40;;;;;;;1999.90;999.90;;;28.00;1.00;;;;;;5055341;28;20209;-60
2022/07/28 11:08:10;;;;;;;1999.90;999.90;;;28.30;1.00;;;;;;5066930;28;20203;-60
2022/07/28 11:10:47;;;;;;;1999.90;999.90;;;28.60;1.00;;;;;;5072692;28;20232;-60
2022/07/28 11:13:38;;;;;;;1999.90;999.90;;;28.60;1.00;;;;;;5072696;28;20206;-59
2022/07/28 11:16:23;;;;;;;1999.90;999.90;;;27.90;1.00;;;;;;5052922;28;20203;-59
2022/07/28 11:19:07;;;;;;;1999.90;999.90;;;28.00;1.00;;;;;;5073120;28;20183;-59
2022/07/28 11:21:34;;;;;;;1999.90;999.90;;;28.30;1.00;;;;;;5072470;28;20195;-59
2022/07/28 11:24:03;;;;;;;1999.90;999.90;;;27.70;1.00;;;;;;5072830;28;20198;-59
2022/07/28 11:26:37;;;;;;;1999.90;999.90;;;27.70;1.00;;;;;;5072513;28;20194;-59
2022/07/28 11:29:18;;;;;;;1999.90;999.90;;;27.80;1.00;;;;;;5072454;28;20206;-59
2022/07/28 11:32:05;;;;;;;1999.90;999.90;;;28.20;1.00;;;;;;5072347;28;20215;-59
2022/07/28 11:35:18;;;;;;;1999.90;999.90;;;28.50;1.00;;;;;;5072901;28;20187;-59
2022/07/28 11:38:11;;;;;;;1999.90;999.90;;;28.40;1.00;;;;;;5072085;28;20592;-59
2022/07/28 11:40:42;;;;;;;1999.90;999.90;;;28.70;1.00;;;;;;5072619;28;20195;-60
2022/07/28 11:43:29;;;;;;;1999.90;999.90;;;29.20;1.00;;;;;;5072339;28;20185;-60
2022/07/28 11:46:22;;;;;;;1999.90;999.90;;;29.10;1.00;;;;;;5072305;28;20213;-59
2022/07/28 11:49:23;;;;;;;1999.90;999.90;;;28.60;1.00;;;;;;5072672;28;20187;-59
2022/07/28 11:52:23;;;;;;;1999.90;999.90;;;28.50;1.00;;;;;;5072401;28;20215;-60
2022/07/28 11:54:55;;;;;;;1999.90;999.90;;;29.20;1.00;;;;;;5067546;28;20236;-60
2022/07/28 11:57:25;;;;;;;1999.90;999.90;;;29.20;1.00;;;;;;5072175;28;20209;-60
2022/07/28 11:59:58;;;;;;;1999.90;999.90;;;29.60;1.00;;;;;;5072502;28;20200;-60
2022/07/28 12:02:30;;;;;;;1999.90;999.90;;;29.80;1.00;;;;;;5072186;28;20549;-59
2022/07/28 12:05:10;;;;;;;1999.90;999.90;;;29.20;1.00;;;;;;5072429;28;20175;-60
2022/07/28 12:07:43;;;;;;;1999.90;999.90;;;29.20;1.00;;;;;;5072238;28;20193;-60
2022/07/28 12:10:34;;;;;;;1999.90;999.90;;;28.40;1.00;;;;;;5072408;28;20179;-60
2022/07/28 12:13:07;;;;;;;1999.90;999.90;;;28.70;1.00;;;;;;5072351;28;20187;-60
2022/07/28 12:15:34;;;;;;;1999.90;999.90;;;28.90;1.00;;;;;;5072276;28;20186;-60
2022/07/28 12:18:02;;;;;;;1999.90;999.90;;;29.40;1.00;;;;;;5072334;28;20288;-60
2022/07/28 12:20:31;;;;;;;1999.90;999.90;;;29.30;1.00;;;;;;5071925;28;20195;-60